sensor_id;sensor_type;location;lat;lon;timestamp;P1;durP1;ratioP1;P2;durP2;ratioP2
1987;SDS011;12775;46.994;15.498;2023-09-19T00:01:41;12.42;;;11.14;;
1987;SDS011;12775;46.994;15.498;2023-09-19T00:04:11;12.82;;;11.26;;
1987;SDS011;12775;46.994;15.498;2023-09-19T00:06:38;13.58;;;10.36;;
1987;SDS011;12775;46.994;15.498;2023-09-19T00:09:05;10.92;;;9.06;;
1987;SDS011;12775;46.994;15.498;2023-09-19T00:11:31;10.96;;;8.82;;
1987;SDS011;12775;46.994;15.498;2023-09-19T00:13:58;12.48;;;10.10;;
1987;SDS011;12775;46.994;15.498;2023-09-19T00:16:25;11.86;;;8.52;;
1987;SDS011;12775;46.994;15.498;2023-09-19T00:18:53;13.68;;;9.50;;
1987;SDS011;12775;46.994;15.498;2023-09-19T00:21:19;12.04;;;8.76;;
1987;SDS011;12775;46.994;15.498;2023-09-19T00:23:47;10.38;;;9.34;;
1987;SDS011;12775;46.994;15.498;2023-09-19T00:26:14;12.22;;;8.10;;
1987;SDS011;12775;46.994;15.498;2023-09-19T00:28:41;11.32;;;7.88;;
1987;SDS011;12775;46.994;15.498;2023-09-19T00:31:08;9.96;;;8.28;;
1987;SDS011;12775;46.994;15.498;2023-09-19T00:33:34;16.68;;;8.70;;
1987;SDS011;12775;46.994;15.498;2023-09-19T00:36:00;12.08;;;7.78;;
1987;SDS011;12775;46.994;15.498;2023-09-19T00:38:27;8.48;;;6.82;;
1987;SDS011;12775;46.994;15.498;2023-09-19T00:40:54;8.74;;;7.72;;
1987;SDS011;12775;46.994;15.498;2023-09-19T00:43:20;9.16;;;6.72;;
1987;SDS011;12775;46.994;15.498;2023-09-19T00:45:48;10.44;;;7.06;;
1987;SDS011;12775;46.994;15.498;2023-09-19T00:48:14;7.14;;;6.44;;
1987;SDS011;12775;46.994;15.498;2023-09-19T00:50:41;8.04;;;7.10;;
1987;SDS011;12775;46.994;15.498;2023-09-19T00:53:07;7.64;;;6.84;;
1987;SDS011;12775;46.994;15.498;2023-09-19T00:55:34;14.76;;;7.68;;
1987;SDS011;12775;46.994;15.498;2023-09-19T00:58:00;9.80;;;7.64;;
1987;SDS011;12775;46.994;15.498;2023-09-19T01:00:26;8.84;;;8.00;;
1987;SDS011;12775;46.994;15.498;2023-09-19T01:02:53;10.32;;;7.88;;
1987;SDS011;12775;46.994;15.498;2023-09-19T01:05:20;9.00;;;7.14;;
1987;SDS011;12775;46.994;15.498;2023-09-19T01:07:47;12.50;;;8.34;;
1987;SDS011;12775;46.994;15.498;2023-09-19T01:10:14;9.30;;;7.26;;
1987;SDS011;12775;46.994;15.498;2023-09-19T01:13:15;9.34;;;8.44;;
1987;SDS011;12775;46.994;15.498;2023-09-19T01:15:49;11.12;;;9.06;;
1987;SDS011;12775;46.994;15.498;2023-09-19T01:18:15;10.76;;;9.54;;
1987;SDS011;12775;46.994;15.498;2023-09-19T01:20:57;11.34;;;8.22;;
1987;SDS011;12775;46.994;15.498;2023-09-19T01:23:24;9.28;;;7.76;;
1987;SDS011;12775;46.994;15.498;2023-09-19T01:31:06;6.74;;;5.90;;
1987;SDS011;12775;46.994;15.498;2023-09-19T01:34:09;6.46;;;5.86;;
1987;SDS011;12775;46.994;15.498;2023-09-19T01:36:28;7.76;;;5.98;;
1987;SDS011;12775;46.994;15.498;2023-09-19T01:38:54;11.64;;;6.30;;
1987;SDS011;12775;46.994;15.498;2023-09-19T01:41:24;7.82;;;6.88;;
1987;SDS011;12775;46.994;15.498;2023-09-19T01:43:48;9.56;;;5.52;;
1987;SDS011;12775;46.994;15.498;2023-09-19T01:46:19;5.76;;;5.24;;
1987;SDS011;12775;46.994;15.498;2023-09-19T01:48:46;6.50;;;5.72;;
1987;SDS011;12775;46.994;15.498;2023-09-19T01:51:14;6.52;;;5.60;;
1987;SDS011;12775;46.994;15.498;2023-09-19T01:53:44;6.90;;;5.12;;
1987;SDS011;12775;46.994;15.498;2023-09-19T01:56:18;11.88;;;6.64;;
1987;SDS011;12775;46.994;15.498;2023-09-19T01:58:45;5.46;;;4.78;;
1987;SDS011;12775;46.994;15.498;2023-09-19T02:01:12;8.86;;;5.54;;
1987;SDS011;12775;46.994;15.498;2023-09-19T02:03:37;9.86;;;5.10;;
1987;SDS011;12775;46.994;15.498;2023-09-19T02:06:04;6.96;;;5.72;;
1987;SDS011;12775;46.994;15.498;2023-09-19T02:08:31;7.46;;;5.72;;
1987;SDS011;12775;46.994;15.498;2023-09-19T02:10:57;6.86;;;5.10;;
1987;SDS011;12775;46.994;15.498;2023-09-19T02:13:24;5.86;;;5.22;;
1987;SDS011;12775;46.994;15.498;2023-09-19T02:15:50;7.76;;;5.06;;
1987;SDS011;12775;46.994;15.498;2023-09-19T02:18:17;7.18;;;5.40;;
1987;SDS011;12775;46.994;15.498;2023-09-19T02:20:44;6.12;;;5.10;;
1987;SDS011;12775;46.994;15.498;2023-09-19T02:23:11;8.14;;;5.40;;
1987;SDS011;12775;46.994;15.498;2023-09-19T02:25:38;8.16;;;5.50;;
1987;SDS011;12775;46.994;15.498;2023-09-19T02:28:05;7.66;;;5.58;;
1987;SDS011;12775;46.994;15.498;2023-09-19T02:30:32;6.44;;;4.54;;
1987;SDS011;12775;46.994;15.498;2023-09-19T02:32:59;5.16;;;4.20;;
1987;SDS011;12775;46.994;15.498;2023-09-19T02:35:28;7.16;;;5.18;;
1987;SDS011;12775;46.994;15.498;2023-09-19T02:37:54;7.26;;;4.72;;
1987;SDS011;12775;46.994;15.498;2023-09-19T02:40:21;7.80;;;4.50;;
1987;SDS011;12775;46.994;15.498;2023-09-19T02:42:49;5.40;;;4.12;;
1987;SDS011;12775;46.994;15.498;2023-09-19T02:45:15;6.56;;;5.16;;
1987;SDS011;12775;46.994;15.498;2023-09-19T02:47:41;6.74;;;5.26;;
1987;SDS011;12775;46.994;15.498;2023-09-19T02:50:08;7.02;;;5.80;;
1987;SDS011;12775;46.994;15.498;2023-09-19T02:52:35;9.60;;;6.54;;
1987;SDS011;12775;46.994;15.498;2023-09-19T02:55:02;7.90;;;6.50;;
1987;SDS011;12775;46.994;15.498;2023-09-19T02:57:29;10.66;;;8.16;;
1987;SDS011;12775;46.994;15.498;2023-09-19T02:59:56;11.56;;;7.88;;
1987;SDS011;12775;46.994;15.498;2023-09-19T03:02:23;10.32;;;7.26;;
1987;SDS011;12775;46.994;15.498;2023-09-19T03:04:49;9.72;;;7.06;;
1987;SDS011;12775;46.994;15.498;2023-09-19T03:07:16;8.94;;;8.04;;
1987;SDS011;12775;46.994;15.498;2023-09-19T03:09:43;12.40;;;8.92;;
1987;SDS011;12775;46.994;15.498;2023-09-19T03:12:10;7.48;;;6.88;;
1987;SDS011;12775;46.994;15.498;2023-09-19T03:14:37;9.20;;;8.26;;
1987;SDS011;12775;46.994;15.498;2023-09-19T03:17:04;7.12;;;6.42;;
1987;SDS011;12775;46.994;15.498;2023-09-19T03:19:31;9.34;;;6.60;;
1987;SDS011;12775;46.994;15.498;2023-09-19T03:21:58;7.78;;;6.60;;
1987;SDS011;12775;46.994;15.498;2023-09-19T03:24:25;8.56;;;7.22;;
1987;SDS011;12775;46.994;15.498;2023-09-19T03:26:51;7.10;;;6.38;;
1987;SDS011;12775;46.994;15.498;2023-09-19T03:29:19;6.78;;;6.18;;
1987;SDS011;12775;46.994;15.498;2023-09-19T03:31:45;8.48;;;5.96;;
1987;SDS011;12775;46.994;15.498;2023-09-19T03:34:12;5.18;;;4.74;;
1987;SDS011;12775;46.994;15.498;2023-09-19T03:36:40;5.92;;;5.30;;
1987;SDS011;12775;46.994;15.498;2023-09-19T03:39:06;7.36;;;4.26;;
1987;SDS011;12775;46.994;15.498;2023-09-19T03:41:33;8.76;;;4.44;;
1987;SDS011;12775;46.994;15.498;2023-09-19T03:43:59;5.56;;;3.94;;
1987;SDS011;12775;46.994;15.498;2023-09-19T03:46:26;4.98;;;3.74;;
1987;SDS011;12775;46.994;15.498;2023-09-19T03:48:53;5.86;;;3.74;;
1987;SDS011;12775;46.994;15.498;2023-09-19T03:51:20;4.44;;;3.60;;
1987;SDS011;12775;46.994;15.498;2023-09-19T03:53:47;4.80;;;2.74;;
1987;SDS011;12775;46.994;15.498;2023-09-19T03:56:13;4.64;;;3.06;;
1987;SDS011;12775;46.994;15.498;2023-09-19T03:58:40;4.02;;;2.22;;
1987;SDS011;12775;46.994;15.498;2023-09-19T04:01:06;6.60;;;2.82;;
1987;SDS011;12775;46.994;15.498;2023-09-19T04:03:33;5.44;;;2.72;;
1987;SDS011;12775;46.994;15.498;2023-09-19T04:06:01;6.42;;;2.92;;
1987;SDS011;12775;46.994;15.498;2023-09-19T04:08:27;2.40;;;2.18;;
1987;SDS011;12775;46.994;15.498;2023-09-19T04:10:54;3.40;;;2.12;;
1987;SDS011;12775;46.994;15.498;2023-09-19T04:13:20;2.42;;;2.22;;
1987;SDS011;12775;46.994;15.498;2023-09-19T04:15:47;7.02;;;2.24;;
1987;SDS011;12775;46.994;15.498;2023-09-19T04:18:14;3.50;;;2.38;;
1987;SDS011;12775;46.994;15.498;2023-09-19T04:20:40;2.66;;;2.24;;
1987;SDS011;12775;46.994;15.498;2023-09-19T04:23:07;3.64;;;2.48;;
1987;SDS011;12775;46.994;15.498;2023-09-19T04:25:35;2.16;;;1.82;;
1987;SDS011;12775;46.994;15.498;2023-09-19T04:28:02;3.56;;;2.30;;
1987;SDS011;12775;46.994;15.498;2023-09-19T04:30:29;3.10;;;2.80;;
1987;SDS011;12775;46.994;15.498;2023-09-19T04:32:56;3.02;;;2.48;;
1987;SDS011;12775;46.994;15.498;2023-09-19T04:35:22;4.56;;;2.48;;
1987;SDS011;12775;46.994;15.498;2023-09-19T04:37:49;8.86;;;3.54;;
1987;SDS011;12775;46.994;15.498;2023-09-19T04:40:16;3.22;;;2.92;;
1987;SDS011;12775;46.994;15.498;2023-09-19T04:42:43;11.20;;;2.74;;
1987;SDS011;12775;46.994;15.498;2023-09-19T04:45:10;7.48;;;3.50;;
1987;SDS011;12775;46.994;15.498;2023-09-19T04:47:37;5.60;;;2.68;;
1987;SDS011;12775;46.994;15.498;2023-09-19T04:50:03;4.38;;;2.92;;
1987;SDS011;12775;46.994;15.498;2023-09-19T04:52:30;4.02;;;2.80;;
1987;SDS011;12775;46.994;15.498;2023-09-19T04:54:57;5.28;;;3.12;;
1987;SDS011;12775;46.994;15.498;2023-09-19T04:57:23;4.06;;;2.70;;
1987;SDS011;12775;46.994;15.498;2023-09-19T04:59:50;7.14;;;3.24;;
1987;SDS011;12775;46.994;15.498;2023-09-19T05:02:16;4.64;;;3.44;;
1987;SDS011;12775;46.994;15.498;2023-09-19T05:04:43;5.48;;;3.18;;
1987;SDS011;12775;46.994;15.498;2023-09-19T05:07:10;9.10;;;3.62;;
1987;SDS011;12775;46.994;15.498;2023-09-19T05:09:37;6.46;;;4.06;;
1987;SDS011;12775;46.994;15.498;2023-09-19T05:12:05;4.92;;;3.46;;
1987;SDS011;12775;46.994;15.498;2023-09-19T05:14:31;7.00;;;3.66;;
1987;SDS011;12775;46.994;15.498;2023-09-19T05:16:58;3.10;;;2.52;;
1987;SDS011;12775;46.994;15.498;2023-09-19T05:19:25;6.02;;;3.10;;
1987;SDS011;12775;46.994;15.498;2023-09-19T05:21:51;4.02;;;3.68;;
1987;SDS011;12775;46.994;15.498;2023-09-19T05:24:18;5.10;;;2.34;;
1987;SDS011;12775;46.994;15.498;2023-09-19T05:26:44;3.44;;;3.14;;
1987;SDS011;12775;46.994;15.498;2023-09-19T05:29:11;3.36;;;2.54;;
1987;SDS011;12775;46.994;15.498;2023-09-19T05:31:38;4.94;;;3.16;;
1987;SDS011;12775;46.994;15.498;2023-09-19T05:34:05;3.80;;;3.02;;
1987;SDS011;12775;46.994;15.498;2023-09-19T05:36:32;4.04;;;3.64;;
1987;SDS011;12775;46.994;15.498;2023-09-19T05:38:59;3.44;;;2.68;;
1987;SDS011;12775;46.994;15.498;2023-09-19T05:41:26;4.96;;;2.94;;
1987;SDS011;12775;46.994;15.498;2023-09-19T05:43:52;4.78;;;3.18;;
1987;SDS011;12775;46.994;15.498;2023-09-19T05:46:19;4.52;;;3.42;;
1987;SDS011;12775;46.994;15.498;2023-09-19T05:48:45;9.16;;;3.72;;
1987;SDS011;12775;46.994;15.498;2023-09-19T05:51:12;6.36;;;3.72;;
1987;SDS011;12775;46.994;15.498;2023-09-19T05:53:39;4.32;;;3.92;;
1987;SDS011;12775;46.994;15.498;2023-09-19T05:56:05;4.46;;;4.00;;
1987;SDS011;12775;46.994;15.498;2023-09-19T05:58:32;5.90;;;4.48;;
1987;SDS011;12775;46.994;15.498;2023-09-19T06:00:58;5.72;;;3.88;;
1987;SDS011;12775;46.994;15.498;2023-09-19T06:03:25;7.06;;;4.20;;
1987;SDS011;12775;46.994;15.498;2023-09-19T06:05:52;7.20;;;4.20;;
1987;SDS011;12775;46.994;15.498;2023-09-19T06:08:18;4.96;;;4.36;;
1987;SDS011;12775;46.994;15.498;2023-09-19T06:10:45;6.52;;;4.62;;
1987;SDS011;12775;46.994;15.498;2023-09-19T06:13:11;9.56;;;5.42;;
1987;SDS011;12775;46.994;15.498;2023-09-19T06:15:38;7.76;;;5.38;;
1987;SDS011;12775;46.994;15.498;2023-09-19T06:18:05;6.80;;;4.84;;
1987;SDS011;12775;46.994;15.498;2023-09-19T06:20:31;6.18;;;4.94;;
1987;SDS011;12775;46.994;15.498;2023-09-19T06:22:58;8.90;;;4.68;;
1987;SDS011;12775;46.994;15.498;2023-09-19T06:25:24;14.36;;;5.86;;
1987;SDS011;12775;46.994;15.498;2023-09-19T06:27:52;11.56;;;4.62;;
1987;SDS011;12775;46.994;15.498;2023-09-19T06:30:18;8.12;;;4.48;;
1987;SDS011;12775;46.994;15.498;2023-09-19T06:32:45;5.80;;;4.24;;
1987;SDS011;12775;46.994;15.498;2023-09-19T06:35:12;6.14;;;3.86;;
1987;SDS011;12775;46.994;15.498;2023-09-19T06:37:38;7.04;;;4.40;;
1987;SDS011;12775;46.994;15.498;2023-09-19T06:40:08;8.08;;;4.60;;
1987;SDS011;12775;46.994;15.498;2023-09-19T06:42:44;7.74;;;5.08;;
1987;SDS011;12775;46.994;15.498;2023-09-19T06:45:11;5.52;;;4.12;;
1987;SDS011;12775;46.994;15.498;2023-09-19T06:47:37;7.74;;;5.26;;
1987;SDS011;12775;46.994;15.498;2023-09-19T06:50:04;5.82;;;4.52;;
1987;SDS011;12775;46.994;15.498;2023-09-19T06:52:31;6.82;;;5.52;;
1987;SDS011;12775;46.994;15.498;2023-09-19T06:54:58;13.36;;;5.70;;
1987;SDS011;12775;46.994;15.498;2023-09-19T06:57:25;5.40;;;4.90;;
1987;SDS011;12775;46.994;15.498;2023-09-19T06:59:51;7.66;;;5.22;;
1987;SDS011;12775;46.994;15.498;2023-09-19T07:02:18;6.40;;;4.38;;
1987;SDS011;12775;46.994;15.498;2023-09-19T07:04:44;7.28;;;3.70;;
1987;SDS011;12775;46.994;15.498;2023-09-19T07:07:11;6.10;;;2.96;;
1987;SDS011;12775;46.994;15.498;2023-09-19T07:09:38;4.70;;;3.40;;
1987;SDS011;12775;46.994;15.498;2023-09-19T07:12:05;3.56;;;3.26;;
1987;SDS011;12775;46.994;15.498;2023-09-19T07:14:32;4.16;;;3.32;;
1987;SDS011;12775;46.994;15.498;2023-09-19T07:16:59;3.38;;;3.08;;
1987;SDS011;12775;46.994;15.498;2023-09-19T07:19:26;3.90;;;2.82;;
1987;SDS011;12775;46.994;15.498;2023-09-19T07:21:54;4.64;;;2.60;;
1987;SDS011;12775;46.994;15.498;2023-09-19T07:24:21;3.86;;;2.76;;
1987;SDS011;12775;46.994;15.498;2023-09-19T07:26:47;3.22;;;2.42;;
1987;SDS011;12775;46.994;15.498;2023-09-19T07:29:14;3.82;;;3.16;;
1987;SDS011;12775;46.994;15.498;2023-09-19T07:31:42;5.00;;;2.76;;
1987;SDS011;12775;46.994;15.498;2023-09-19T07:34:08;3.84;;;2.70;;
1987;SDS011;12775;46.994;15.498;2023-09-19T07:36:35;5.82;;;3.00;;
1987;SDS011;12775;46.994;15.498;2023-09-19T07:39:01;4.22;;;2.74;;
1987;SDS011;12775;46.994;15.498;2023-09-19T07:41:28;4.78;;;3.10;;
1987;SDS011;12775;46.994;15.498;2023-09-19T07:43:56;8.40;;;3.28;;
1987;SDS011;12775;46.994;15.498;2023-09-19T07:46:22;6.44;;;3.22;;
1987;SDS011;12775;46.994;15.498;2023-09-19T07:48:49;3.64;;;3.34;;
1987;SDS011;12775;46.994;15.498;2023-09-19T07:51:15;4.32;;;3.00;;
1987;SDS011;12775;46.994;15.498;2023-09-19T07:53:42;5.86;;;3.58;;
1987;SDS011;12775;46.994;15.498;2023-09-19T07:56:09;3.72;;;3.36;;
1987;SDS011;12775;46.994;15.498;2023-09-19T07:58:35;5.86;;;3.54;;
1987;SDS011;12775;46.994;15.498;2023-09-19T08:01:04;5.74;;;3.50;;
1987;SDS011;12775;46.994;15.498;2023-09-19T08:03:30;3.42;;;3.04;;
1987;SDS011;12775;46.994;15.498;2023-09-19T08:05:57;3.60;;;3.30;;
1987;SDS011;12775;46.994;15.498;2023-09-19T08:08:24;7.60;;;3.72;;
1987;SDS011;12775;46.994;15.498;2023-09-19T08:10:53;4.64;;;4.24;;
1987;SDS011;12775;46.994;15.498;2023-09-19T08:13:19;4.80;;;4.00;;
1987;SDS011;12775;46.994;15.498;2023-09-19T08:15:46;5.48;;;3.82;;
1987;SDS011;12775;46.994;15.498;2023-09-19T08:18:13;7.62;;;3.22;;
1987;SDS011;12775;46.994;15.498;2023-09-19T08:20:39;4.18;;;3.20;;
1987;SDS011;12775;46.994;15.498;2023-09-19T08:23:05;3.80;;;3.32;;
1987;SDS011;12775;46.994;15.498;2023-09-19T08:25:32;4.20;;;3.08;;
1987;SDS011;12775;46.994;15.498;2023-09-19T08:27:59;5.94;;;3.30;;
1987;SDS011;12775;46.994;15.498;2023-09-19T08:30:25;7.74;;;2.98;;
1987;SDS011;12775;46.994;15.498;2023-09-19T08:32:58;3.22;;;2.40;;
1987;SDS011;12775;46.994;15.498;2023-09-19T08:35:25;2.50;;;2.30;;
1987;SDS011;12775;46.994;15.498;2023-09-19T08:37:51;3.04;;;2.70;;
1987;SDS011;12775;46.994;15.498;2023-09-19T08:40:18;5.48;;;2.92;;
1987;SDS011;12775;46.994;15.498;2023-09-19T08:42:48;2.62;;;2.42;;
1987;SDS011;12775;46.994;15.498;2023-09-19T08:45:14;3.60;;;3.24;;
1987;SDS011;12775;46.994;15.498;2023-09-19T08:47:45;4.78;;;2.90;;
1987;SDS011;12775;46.994;15.498;2023-09-19T08:50:13;2.70;;;2.50;;
1987;SDS011;12775;46.994;15.498;2023-09-19T08:52:41;3.78;;;3.06;;
1987;SDS011;12775;46.994;15.498;2023-09-19T08:55:07;3.90;;;3.16;;
1987;SDS011;12775;46.994;15.498;2023-09-19T08:57:34;3.68;;;2.20;;
1987;SDS011;12775;46.994;15.498;2023-09-19T09:00:01;3.70;;;3.06;;
1987;SDS011;12775;46.994;15.498;2023-09-19T09:02:27;3.06;;;2.34;;
1987;SDS011;12775;46.994;15.498;2023-09-19T09:04:54;2.20;;;2.00;;
1987;SDS011;12775;46.994;15.498;2023-09-19T09:07:20;2.90;;;1.70;;
1987;SDS011;12775;46.994;15.498;2023-09-19T09:09:47;1.86;;;1.64;;
1987;SDS011;12775;46.994;15.498;2023-09-19T09:12:14;1.62;;;1.52;;
1987;SDS011;12775;46.994;15.498;2023-09-19T09:14:43;4.96;;;2.08;;
1987;SDS011;12775;46.994;15.498;2023-09-19T09:17:10;2.52;;;2.12;;
1987;SDS011;12775;46.994;15.498;2023-09-19T09:19:36;2.56;;;2.10;;
1987;SDS011;12775;46.994;15.498;2023-09-19T09:22:06;4.84;;;2.66;;
1987;SDS011;12775;46.994;15.498;2023-09-19T09:24:33;4.52;;;2.36;;
1987;SDS011;12775;46.994;15.498;2023-09-19T09:26:59;1.94;;;1.82;;
1987;SDS011;12775;46.994;15.498;2023-09-19T09:32:16;2.84;;;2.26;;
1987;SDS011;12775;46.994;15.498;2023-09-19T09:34:47;6.36;;;2.76;;
1987;SDS011;12775;46.994;15.498;2023-09-19T09:37:14;2.58;;;2.16;;
1987;SDS011;12775;46.994;15.498;2023-09-19T09:39:42;2.30;;;2.10;;
1987;SDS011;12775;46.994;15.498;2023-09-19T09:42:08;4.82;;;2.08;;
1987;SDS011;12775;46.994;15.498;2023-09-19T09:44:34;1.88;;;1.58;;
1987;SDS011;12775;46.994;15.498;2023-09-19T09:47:01;1.50;;;1.20;;
1987;SDS011;12775;46.994;15.498;2023-09-19T09:49:33;2.30;;;1.62;;
1987;SDS011;12775;46.994;15.498;2023-09-19T09:52:01;2.36;;;1.50;;
1987;SDS011;12775;46.994;15.498;2023-09-19T09:54:28;2.36;;;1.24;;
1987;SDS011;12775;46.994;15.498;2023-09-19T09:56:56;2.04;;;1.42;;
1987;SDS011;12775;46.994;15.498;2023-09-19T10:02:04;2.82;;;1.38;;
1987;SDS011;12775;46.994;15.498;2023-09-19T10:04:30;3.20;;;1.82;;
1987;SDS011;12775;46.994;15.498;2023-09-19T10:06:59;4.00;;;1.82;;
1987;SDS011;12775;46.994;15.498;2023-09-19T10:09:25;3.74;;;1.68;;
1987;SDS011;12775;46.994;15.498;2023-09-19T10:12:00;1.62;;;1.40;;
1987;SDS011;12775;46.994;15.498;2023-09-19T10:14:29;2.90;;;1.52;;
1987;SDS011;12775;46.994;15.498;2023-09-19T10:16:53;2.28;;;1.56;;
1987;SDS011;12775;46.994;15.498;2023-09-19T10:19:21;2.10;;;1.18;;
1987;SDS011;12775;46.994;15.498;2023-09-19T10:21:47;1.58;;;1.48;;
1987;SDS011;12775;46.994;15.498;2023-09-19T10:24:13;2.72;;;1.64;;
1987;SDS011;12775;46.994;15.498;2023-09-19T10:26:41;1.90;;;1.00;;
1987;SDS011;12775;46.994;15.498;2023-09-19T10:29:07;2.64;;;1.64;;
1987;SDS011;12775;46.994;15.498;2023-09-19T10:31:34;6.08;;;1.54;;
1987;SDS011;12775;46.994;15.498;2023-09-19T10:34:02;3.72;;;1.42;;
1987;SDS011;12775;46.994;15.498;2023-09-19T10:36:27;2.66;;;1.22;;
1987;SDS011;12775;46.994;15.498;2023-09-19T10:38:54;1.24;;;1.12;;
1987;SDS011;12775;46.994;15.498;2023-09-19T10:41:21;1.02;;;0.92;;
1987;SDS011;12775;46.994;15.498;2023-09-19T10:43:48;3.20;;;1.56;;
1987;SDS011;12775;46.994;15.498;2023-09-19T10:46:13;1.92;;;1.18;;
1987;SDS011;12775;46.994;15.498;2023-09-19T10:48:40;2.36;;;1.54;;
1987;SDS011;12775;46.994;15.498;2023-09-19T10:51:09;1.64;;;1.40;;
1987;SDS011;12775;46.994;15.498;2023-09-19T10:54:12;3.96;;;1.30;;
1987;SDS011;12775;46.994;15.498;2023-09-19T10:56:32;2.72;;;1.52;;
1987;SDS011;12775;46.994;15.498;2023-09-19T10:59:08;1.06;;;0.96;;
1987;SDS011;12775;46.994;15.498;2023-09-19T11:07:01;2.38;;;1.28;;
1987;SDS011;12775;46.994;15.498;2023-09-19T11:15:11;1.64;;;1.28;;
1987;SDS011;12775;46.994;15.498;2023-09-19T11:17:38;1.64;;;1.52;;
1987;SDS011;12775;46.994;15.498;2023-09-19T11:20:20;2.00;;;1.40;;
1987;SDS011;12775;46.994;15.498;2023-09-19T11:25:47;2.48;;;1.36;;
1987;SDS011;12775;46.994;15.498;2023-09-19T11:28:27;2.02;;;1.10;;
1987;SDS011;12775;46.994;15.498;2023-09-19T11:30:57;1.56;;;1.28;;
1987;SDS011;12775;46.994;15.498;2023-09-19T11:33:25;1.86;;;1.64;;
1987;SDS011;12775;46.994;15.498;2023-09-19T11:36:00;3.96;;;1.30;;
1987;SDS011;12775;46.994;15.498;2023-09-19T11:43:44;1.26;;;0.82;;
1987;SDS011;12775;46.994;15.498;2023-09-19T11:46:11;1.68;;;0.90;;
1987;SDS011;12775;46.994;15.498;2023-09-19T11:48:38;3.06;;;1.30;;
1987;SDS011;12775;46.994;15.498;2023-09-19T11:51:09;1.80;;;1.70;;
1987;SDS011;12775;46.994;15.498;2023-09-19T11:53:32;3.06;;;1.44;;
1987;SDS011;12775;46.994;15.498;2023-09-19T11:55:58;2.02;;;1.38;;
1987;SDS011;12775;46.994;15.498;2023-09-19T11:58:25;2.28;;;1.84;;
1987;SDS011;12775;46.994;15.498;2023-09-19T12:00:54;2.22;;;1.36;;
1987;SDS011;12775;46.994;15.498;2023-09-19T12:03:21;1.10;;;0.86;;
1987;SDS011;12775;46.994;15.498;2023-09-19T12:05:47;2.80;;;1.42;;
1987;SDS011;12775;46.994;15.498;2023-09-19T12:08:14;2.68;;;1.76;;
1987;SDS011;12775;46.994;15.498;2023-09-19T12:10:45;2.92;;;1.16;;
1987;SDS011;12775;46.994;15.498;2023-09-19T12:13:15;3.02;;;1.44;;
1987;SDS011;12775;46.994;15.498;2023-09-19T12:15:37;1.66;;;1.56;;
1987;SDS011;12775;46.994;15.498;2023-09-19T12:18:04;3.08;;;1.56;;
1987;SDS011;12775;46.994;15.498;2023-09-19T12:23:12;7.10;;;1.82;;
1987;SDS011;12775;46.994;15.498;2023-09-19T12:25:41;1.16;;;1.00;;
1987;SDS011;12775;46.994;15.498;2023-09-19T12:28:07;3.54;;;1.30;;
1987;SDS011;12775;46.994;15.498;2023-09-19T12:30:33;3.76;;;1.38;;
1987;SDS011;12775;46.994;15.498;2023-09-19T12:33:00;2.72;;;1.26;;
1987;SDS011;12775;46.994;15.498;2023-09-19T12:35:28;1.54;;;1.44;;
1987;SDS011;12775;46.994;15.498;2023-09-19T12:37:56;4.08;;;1.30;;
1987;SDS011;12775;46.994;15.498;2023-09-19T12:40:22;2.12;;;1.56;;
1987;SDS011;12775;46.994;15.498;2023-09-19T12:42:49;1.42;;;1.24;;
1987;SDS011;12775;46.994;15.498;2023-09-19T12:45:16;1.78;;;1.42;;
1987;SDS011;12775;46.994;15.498;2023-09-19T12:50:21;3.28;;;1.50;;
1987;SDS011;12775;46.994;15.498;2023-09-19T12:52:49;1.54;;;1.12;;
1987;SDS011;12775;46.994;15.498;2023-09-19T13:00:37;4.00;;;1.68;;
1987;SDS011;12775;46.994;15.498;2023-09-19T13:03:09;2.50;;;1.86;;
1987;SDS011;12775;46.994;15.498;2023-09-19T13:05:47;4.12;;;1.46;;
1987;SDS011;12775;46.994;15.498;2023-09-19T13:08:17;2.34;;;1.82;;
1987;SDS011;12775;46.994;15.498;2023-09-19T13:13:23;7.14;;;3.04;;
1987;SDS011;12775;46.994;15.498;2023-09-19T13:15:52;3.56;;;1.98;;
1987;SDS011;12775;46.994;15.498;2023-09-19T13:18:18;1.52;;;1.08;;
1987;SDS011;12775;46.994;15.498;2023-09-19T13:20:53;1.32;;;1.22;;
1987;SDS011;12775;46.994;15.498;2023-09-19T13:23:25;5.88;;;2.10;;
1987;SDS011;12775;46.994;15.498;2023-09-19T13:25:38;1.82;;;1.40;;
1987;SDS011;12775;46.994;15.498;2023-09-19T13:28:05;1.64;;;1.50;;
1987;SDS011;12775;46.994;15.498;2023-09-19T13:30:32;3.88;;;1.92;;
1987;SDS011;12775;46.994;15.498;2023-09-19T13:33:05;3.22;;;1.42;;
1987;SDS011;12775;46.994;15.498;2023-09-19T13:35:32;1.78;;;1.48;;
1987;SDS011;12775;46.994;15.498;2023-09-19T13:37:58;2.60;;;1.72;;
1987;SDS011;12775;46.994;15.498;2023-09-19T13:40:25;3.22;;;2.00;;
1987;SDS011;12775;46.994;15.498;2023-09-19T13:42:52;2.10;;;1.22;;
1987;SDS011;12775;46.994;15.498;2023-09-19T13:45:18;2.10;;;1.64;;
1987;SDS011;12775;46.994;15.498;2023-09-19T13:47:45;2.30;;;1.48;;
1987;SDS011;12775;46.994;15.498;2023-09-19T13:50:12;2.56;;;1.30;;
1987;SDS011;12775;46.994;15.498;2023-09-19T13:52:39;3.46;;;1.86;;
1987;SDS011;12775;46.994;15.498;2023-09-19T13:55:05;1.36;;;1.26;;
1987;SDS011;12775;46.994;15.498;2023-09-19T13:57:32;1.54;;;1.34;;
1987;SDS011;12775;46.994;15.498;2023-09-19T14:02:44;2.50;;;1.55;;
1987;SDS011;12775;46.994;15.498;2023-09-19T14:05:12;1.70;;;1.48;;
1987;SDS011;12775;46.994;15.498;2023-09-19T14:07:39;2.30;;;1.62;;
1987;SDS011;12775;46.994;15.498;2023-09-19T14:10:05;2.20;;;1.24;;
1987;SDS011;12775;46.994;15.498;2023-09-19T14:12:33;1.66;;;1.20;;
1987;SDS011;12775;46.994;15.498;2023-09-19T14:15:00;2.26;;;1.72;;
1987;SDS011;12775;46.994;15.498;2023-09-19T14:17:27;3.26;;;1.92;;
1987;SDS011;12775;46.994;15.498;2023-09-19T14:19:54;1.64;;;1.34;;
1987;SDS011;12775;46.994;15.498;2023-09-19T14:22:22;1.40;;;1.14;;
1987;SDS011;12775;46.994;15.498;2023-09-19T14:24:48;4.18;;;1.34;;
1987;SDS011;12775;46.994;15.498;2023-09-19T14:27:15;3.34;;;1.98;;
1987;SDS011;12775;46.994;15.498;2023-09-19T14:29:42;3.16;;;2.10;;
1987;SDS011;12775;46.994;15.498;2023-09-19T14:32:08;2.72;;;1.42;;
1987;SDS011;12775;46.994;15.498;2023-09-19T14:34:34;2.24;;;1.42;;
1987;SDS011;12775;46.994;15.498;2023-09-19T14:37:01;1.42;;;1.20;;
1987;SDS011;12775;46.994;15.498;2023-09-19T14:39:28;3.00;;;1.60;;
1987;SDS011;12775;46.994;15.498;2023-09-19T14:41:56;2.92;;;1.54;;
1987;SDS011;12775;46.994;15.498;2023-09-19T14:44:23;2.52;;;1.46;;
1987;SDS011;12775;46.994;15.498;2023-09-19T14:46:51;3.68;;;2.12;;
1987;SDS011;12775;46.994;15.498;2023-09-19T14:49:18;2.74;;;1.50;;
1987;SDS011;12775;46.994;15.498;2023-09-19T14:51:46;2.78;;;1.88;;
1987;SDS011;12775;46.994;15.498;2023-09-19T14:54:13;4.70;;;2.20;;
1987;SDS011;12775;46.994;15.498;2023-09-19T14:56:39;4.22;;;1.60;;
1987;SDS011;12775;46.994;15.498;2023-09-19T14:59:06;2.32;;;1.72;;
1987;SDS011;12775;46.994;15.498;2023-09-19T15:01:33;4.84;;;1.40;;
1987;SDS011;12775;46.994;15.498;2023-09-19T15:04:00;4.80;;;1.66;;
1987;SDS011;12775;46.994;15.498;2023-09-19T15:06:26;2.46;;;1.78;;
1987;SDS011;12775;46.994;15.498;2023-09-19T15:08:53;2.76;;;1.70;;
1987;SDS011;12775;46.994;15.498;2023-09-19T15:11:20;2.04;;;1.54;;
1987;SDS011;12775;46.994;15.498;2023-09-19T15:13:46;1.48;;;1.38;;
1987;SDS011;12775;46.994;15.498;2023-09-19T15:16:13;2.16;;;1.86;;
1987;SDS011;12775;46.994;15.498;2023-09-19T15:18:40;3.36;;;1.74;;
1987;SDS011;12775;46.994;15.498;2023-09-19T15:21:06;5.84;;;1.70;;
1987;SDS011;12775;46.994;15.498;2023-09-19T15:23:33;2.42;;;1.40;;
1987;SDS011;12775;46.994;15.498;2023-09-19T15:26:00;3.38;;;1.18;;
1987;SDS011;12775;46.994;15.498;2023-09-19T15:28:27;1.52;;;1.36;;
1987;SDS011;12775;46.994;15.498;2023-09-19T15:31:00;1.80;;;1.52;;
1987;SDS011;12775;46.994;15.498;2023-09-19T15:33:27;5.40;;;1.80;;